Forside
METAR-TAF:

METAR-TAF

Lufthavne :

Yap, Mikronesien

Breddekreds: 09-29N, længdekreds: 138-05E, højde: 28 m

Aktuelle vejr

Denne rapport blev lavet for 34 minutter siden, kl. 08:52 UTC
Vind 5 kt fra varierende retninger
Temperatur 29°C
Fugtighed 89%
Tryk 1009 hPa
Sigt: 19.3 km
Nogle få skyer i en højde af 1600 ft
Spredte skyer i en højde af 30000 ft

METAR: PTYA 260852Z VRB05KT 12SM FEW016 SCT300 29/27 A2981 RMK SLP095 8/101 T02890265 53002

Tid: 19:26 (09:26 UTC)

Vejrudsigter

Denne rapport blev lavet for 3 timer og 48 minutter siden, kl. 05:38 UTC
Foreløbig gælder fra 26 på 06 UTC til 27 på 06 UTC
Vind 12 kt fra østsydøst
Sigt: 10 km
Spredte skyer i en højde af 2000 ft
Spredte skyer i en højde af 12000 ft
byger i nærheden,

TAF: PTYA 260538Z 2606/2706 11012KT P6SM VCSH SCT020 SCT120

Vejrobservationer og prognoser fra mere end 4000 lufthavne (METAR og TAF).

De gule og røde prikker repræsenterer de meteorologiske stationer.

Flyt musen over at se navnet på stationen.

Så klik over at se vejr observationer og prognoser.

At skifte det kort: Klik på de grønne knapper med et sort kors for at zoome ind; på den grønne knap med en bindestreg for at zoome ud; eller på de grønne pile for tilstødende kort.


METAR-TAF: